createdAt,value
2022-10-01T00:02:12.229Z,99848.34
2022-10-01T00:04:39.967Z,99849.53
2022-10-01T00:07:11.009Z,99840.44
2022-10-01T00:09:38.593Z,99838.44
2022-10-01T00:12:05.774Z,99830.84
2022-10-01T00:14:32.883Z,99833.53
2022-10-01T00:17:00.049Z,99821.09
2022-10-01T00:19:27.532Z,99831.69
2022-10-01T00:21:54.371Z,99821.94
2022-10-01T00:24:21.123Z,99815.03
2022-10-01T00:26:48.190Z,99817.38
2022-10-01T00:29:15.922Z,99808.63
2022-10-01T00:31:44.069Z,99807.78
2022-10-01T00:34:15.494Z,99798.53
2022-10-01T00:36:42.584Z,99793.81
2022-10-01T00:39:14.515Z,99804.44
2022-10-01T00:41:42.582Z,99796.69
2022-10-01T00:44:42.040Z,99796.84
2022-10-01T00:47:33.716Z,99797.03
2022-10-01T00:50:28.454Z,99794.66
2022-10-01T00:53:05.189Z,99779.84
2022-10-01T00:55:39.946Z,99781.19
2022-10-01T00:58:12.931Z,99770.09
2022-10-01T01:00:43.830Z,99778.69
2022-10-01T01:03:11.972Z,99770.09
2022-10-01T01:05:39.731Z,99763.03
2022-10-01T01:08:10.063Z,99756.13
2022-10-01T01:10:55.164Z,99757.66
2022-10-01T01:14:10.264Z,99755.13
2022-10-01T01:17:08.786Z,99756.47
2022-10-01T01:19:50.983Z,99752.44
2022-10-01T01:22:26.949Z,99749.91
2022-10-01T01:25:20.988Z,99745.38
2022-10-01T01:28:31.658Z,99737.97
2022-10-01T01:31:10.148Z,99734.41
2022-10-01T01:33:48.190Z,99728.22
2022-10-01T01:36:33.550Z,99730.22
2022-10-01T01:39:08.512Z,99725.69
2022-10-01T01:41:52.296Z,99723.16
2022-10-01T01:44:30.668Z,99721.81
2022-10-01T01:47:03.747Z,99712.41
2022-10-01T01:49:31.291Z,99712.72
2022-10-01T01:52:16.149Z,99703.66
2022-10-01T01:54:49.798Z,99695.88
2022-10-01T01:57:20.310Z,99687.66
2022-10-01T01:59:47.879Z,99693.03
2022-10-01T02:02:26.245Z,99684.59
2022-10-01T02:05:05.024Z,99679.75
2022-10-01T02:07:54.708Z,99675.50
2022-10-01T02:11:19.044Z,99667.63
2022-10-01T02:14:02.172Z,99670.47
2022-10-01T02:17:01.639Z,99670.28
2022-10-01T02:19:57.091Z,99654.81
2022-10-01T02:22:53.979Z,99655.97
2022-10-01T02:25:27.882Z,99648.91
2022-10-01T02:28:07.693Z,99638.47
2022-10-01T02:30:46.979Z,99635.44
2022-10-01T02:33:34.558Z,99629.91
2022-10-01T02:36:08.306Z,99632.25
2022-10-01T02:38:42.357Z,99633.94
2022-10-01T02:41:16.697Z,99633.44
2022-10-01T02:44:25.719Z,99615.41
2022-10-01T02:47:10.276Z,99616.56
2022-10-01T02:49:55.732Z,99606.94
2022-10-01T02:52:42.882Z,99607.56
2022-10-01T02:55:30.731Z,99594.47
2022-10-01T02:57:58.315Z,99598.28
2022-10-01T03:00:27.184Z,99605.53
2022-10-01T03:02:54.681Z,99595.97
2022-10-01T03:05:25.052Z,99589.06
2022-10-01T03:07:54.568Z,99584.50
2022-10-01T03:10:23.938Z,99572.41
2022-10-01T03:12:51.071Z,99579.31
2022-10-01T03:15:20.415Z,99573.75
2022-10-01T03:17:54.941Z,99567.53
2022-10-01T03:20:22.638Z,99566.16
2022-10-01T03:22:49.736Z,99568.50
2022-10-01T03:25:22.521Z,99562.28
2022-10-01T03:27:49.739Z,99560.25
2022-10-01T03:30:16.776Z,99568.78
2022-10-01T03:32:54.735Z,99550.28
2022-10-01T03:35:25.066Z,99554.84
2022-10-01T03:37:51.992Z,99550.13
2022-10-01T03:40:19.494Z,99549.94
2022-10-01T03:42:50.231Z,99547.91
2022-10-01T03:45:24.063Z,99557.16
2022-10-01T03:47:54.411Z,99555.56
2022-10-01T03:50:21.934Z,99555.25
2022-10-01T03:52:50.660Z,99547.31
2022-10-01T03:55:17.358Z,99544.81
2022-10-01T03:57:44.091Z,99544.47
2022-10-01T04:00:12.003Z,99543.44
2022-10-01T04:02:38.712Z,99548.81
2022-10-01T04:05:05.851Z,99541.78
2022-10-01T04:07:32.509Z,99540.56
2022-10-01T04:09:59.078Z,99546.97
2022-10-01T04:12:26.017Z,99532.47
2022-10-01T04:14:55.062Z,99536.50
2022-10-01T04:17:22.152Z,99529.91
2022-10-01T04:19:48.768Z,99535.31
2022-10-01T04:22:15.561Z,99529.75
2022-10-01T04:24:42.293Z,99525.84
2022-10-01T04:27:09.853Z,99525.09
2022-10-01T04:29:40.083Z,99515.47
2022-10-01T04:32:07.445Z,99518.28
2022-10-01T04:34:52.755Z,99508.72
2022-10-01T04:37:24.246Z,99502.31
2022-10-01T04:42:34.150Z,99499.25
2022-10-01T04:53:14.223Z,99483.13
2022-10-01T05:03:41.249Z,99480.97
2022-10-01T05:41:26.394Z,99419.13
2022-10-01T06:00:05.655Z,99375.19
2022-10-01T06:13:22.781Z,99356.91
2022-10-01T06:18:34.558Z,99348.69
2022-10-01T06:21:01.814Z,99342.66
2022-10-01T06:23:28.550Z,99339.97
2022-10-01T06:25:55.270Z,99324.16
2022-10-01T06:28:22.022Z,99335.25
2022-10-01T06:30:49.732Z,99334.38
2022-10-01T06:33:18.173Z,99327.34
2022-10-01T06:35:52.977Z,99327.50
2022-10-01T06:46:35.218Z,99320.25
2022-10-01T06:49:02.061Z,99307.00
2022-10-01T06:51:47.159Z,99303.28
2022-10-01T06:54:15.134Z,99307.47
2022-10-01T07:02:07.353Z,99309.44
2022-10-01T07:04:34.103Z,99296.53
2022-10-01T07:07:01.260Z,99286.59
2022-10-01T07:12:08.889Z,99287.97
2022-10-01T07:14:48.233Z,99285.59
2022-10-01T07:36:45.574Z,99259.88
2022-10-01T07:50:06.643Z,99221.66
2022-10-01T07:55:17.431Z,99221.44
2022-10-01T07:57:49.602Z,99225.72
2022-10-01T08:00:16.589Z,99225.00
2022-10-01T08:05:35.876Z,99206.69
2022-10-01T08:13:33.258Z,99205.00
2022-10-01T08:16:06.077Z,99193.41
2022-10-01T08:18:34.228Z,99197.75
2022-10-01T08:21:02.207Z,99209.19
2022-10-01T08:23:34.928Z,99196.94
2022-10-01T08:26:11.376Z,99195.16
2022-10-01T08:28:37.989Z,99199.16
2022-10-01T08:31:07.544Z,99204.19
2022-10-01T08:33:35.389Z,99186.16
2022-10-01T08:36:07.926Z,99193.03
2022-10-01T08:38:36.137Z,99198.91
2022-10-01T08:44:57.883Z,99196.31
2022-10-01T08:47:41.239Z,99179.78
2022-10-01T08:50:41.777Z,99191.69
2022-10-01T08:53:31.761Z,99187.16
2022-10-01T08:56:03.628Z,99184.28
2022-10-01T08:58:48.383Z,99178.69
2022-10-01T09:01:15.134Z,99174.63
2022-10-01T09:03:45.016Z,99186.53
2022-10-01T09:06:30.170Z,99174.34
2022-10-01T09:09:34.407Z,99176.28
2022-10-01T09:12:14.744Z,99177.22
2022-10-01T09:15:15.634Z,99176.38
2022-10-01T09:18:12.848Z,99164.41
2022-10-01T09:20:53.869Z,99162.19
2022-10-01T09:23:42.061Z,99172.97
2022-10-01T09:26:12.954Z,99168.78
2022-10-01T09:28:41.863Z,99167.09
2022-10-01T09:31:27.523Z,99168.00
2022-10-01T09:34:12.398Z,99176.31
2022-10-01T09:36:57.542Z,99173.41
2022-10-01T09:40:15.645Z,99171.75
2022-10-01T09:42:43.980Z,99168.00
2022-10-01T09:45:18.624Z,99164.13
2022-10-01T09:47:55.000Z,99160.88
2022-10-01T09:50:44.127Z,99162.91
2022-10-01T09:54:09.211Z,99152.78
2022-10-01T09:57:01.215Z,99165.69
2022-10-01T09:59:41.381Z,99166.34
2022-10-01T10:02:32.833Z,99163.09
2022-10-01T10:05:16.025Z,99157.69
2022-10-01T10:08:18.321Z,99158.97
2022-10-01T10:11:00.317Z,99159.06
2022-10-01T10:13:48.530Z,99157.75
2022-10-01T10:16:28.785Z,99154.66
2022-10-01T10:19:10.189Z,99154.53
2022-10-01T10:21:37.913Z,99155.44
2022-10-01T10:24:23.900Z,99165.88
2022-10-01T10:27:01.577Z,99157.41
2022-10-01T10:29:37.363Z,99164.09
2022-10-01T10:32:25.764Z,99151.16
2022-10-01T10:35:02.669Z,99153.88
2022-10-01T10:37:49.694Z,99160.09
2022-10-01T10:40:34.396Z,99146.34
2022-10-01T10:43:01.873Z,99157.97
2022-10-01T10:48:37.075Z,99160.47
2022-10-01T10:51:06.862Z,99160.91
2022-10-01T10:53:46.300Z,99157.75
2022-10-01T11:36:34.550Z,99143.84
2022-10-01T11:42:16.896Z,99144.88
2022-10-01T11:45:04.424Z,99151.13
2022-10-01T11:47:46.791Z,99153.59
2022-10-01T11:50:39.376Z,99140.81
2022-10-01T11:53:33.670Z,99147.09
2022-10-01T11:56:36.467Z,99144.81
2022-10-01T11:59:20.174Z,99142.84
2022-10-01T12:02:15.474Z,99150.19
2022-10-01T12:05:01.295Z,99145.41
2022-10-01T12:07:47.919Z,99149.25
2022-10-01T12:10:46.049Z,99137.63
2022-10-01T12:13:23.874Z,99142.84
2022-10-01T12:16:28.798Z,99138.22
2022-10-01T12:19:21.556Z,99147.78
2022-10-01T12:22:28.328Z,99148.19
2022-10-01T12:24:55.028Z,99149.50
2022-10-01T12:28:10.760Z,99142.28
2022-10-01T12:30:54.967Z,99146.72
2022-10-01T12:34:06.839Z,99158.91
2022-10-01T12:37:15.654Z,99165.63
2022-10-01T12:40:16.619Z,99167.72
2022-10-01T12:43:37.916Z,99160.00
2022-10-01T12:46:37.963Z,99173.41
2022-10-01T12:50:01.748Z,99178.13
2022-10-01T12:53:17.842Z,99182.97
2022-10-01T12:56:16.996Z,99182.72
2022-10-01T12:59:35.701Z,99185.34
2022-10-01T13:02:58.326Z,99192.31
2022-10-01T13:06:08.728Z,99186.50
2022-10-01T13:09:05.989Z,99193.59
2022-10-01T13:36:00.187Z,99231.56
2022-10-01T13:38:45.026Z,99250.41
2022-10-01T13:41:33.469Z,99248.84
2022-10-01T13:44:09.244Z,99251.19
2022-10-01T13:46:56.596Z,99259.59
2022-10-01T13:49:32.037Z,99268.53
2022-10-01T13:51:59.701Z,99277.72
2022-10-01T13:54:54.918Z,99272.78
2022-10-01T13:57:38.098Z,99283.84
2022-10-01T14:00:17.041Z,99286.22
2022-10-01T14:03:37.787Z,99286.69
2022-10-01T14:06:17.368Z,99289.69
2022-10-01T14:09:35.199Z,99297.59
2022-10-01T14:12:38.941Z,99300.50
2022-10-01T14:16:03.115Z,99297.50
2022-10-01T14:18:42.849Z,99300.47
2022-10-01T14:22:37.230Z,99312.38
2022-10-01T14:25:53.368Z,99319.56
2022-10-01T14:29:01.102Z,99314.78
2022-10-01T14:31:58.897Z,99322.25
2022-10-01T14:34:49.096Z,99328.91
2022-10-01T14:37:21.170Z,99326.66
2022-10-01T14:40:12.597Z,99328.78
2022-10-01T14:42:39.255Z,99340.38
2022-10-01T14:45:19.709Z,99325.28
2022-10-01T14:47:48.854Z,99347.59
2022-10-01T14:50:22.216Z,99332.91
2022-10-01T14:52:54.953Z,99352.44
2022-10-01T14:55:24.328Z,99342.31
2022-10-01T14:57:56.159Z,99348.41
2022-10-01T15:00:33.281Z,99345.22
2022-10-01T15:03:17.929Z,99353.19
2022-10-01T15:05:50.149Z,99361.88
2022-10-01T15:08:39.935Z,99371.25
2022-10-01T15:11:17.733Z,99370.09
2022-10-01T15:13:49.580Z,99372.84
2022-10-01T15:16:23.509Z,99374.50
2022-10-01T15:18:57.738Z,99369.94
2022-10-01T15:21:37.666Z,99380.22
2022-10-01T15:24:24.266Z,99387.38
2022-10-01T15:26:55.680Z,99395.09
2022-10-01T15:29:23.457Z,99396.38
2022-10-01T15:31:53.307Z,99401.16
2022-10-01T15:34:25.578Z,99400.13
2022-10-01T15:36:58.224Z,99406.38
2022-10-01T15:39:40.165Z,99414.09
2022-10-01T15:43:09.623Z,99414.72
2022-10-01T15:45:36.500Z,99420.94
2022-10-01T15:48:03.503Z,99422.19
2022-10-01T15:50:37.675Z,99430.09
2022-10-01T15:53:15.801Z,99430.13
2022-10-01T15:55:49.438Z,99438.25
2022-10-01T15:58:23.347Z,99443.03
2022-10-01T16:01:31.180Z,99446.16
2022-10-01T16:04:14.187Z,99452.63
2022-10-01T16:06:51.911Z,99454.69
2022-10-01T16:09:28.413Z,99449.81
2022-10-01T16:12:22.769Z,99461.66
2022-10-01T16:15:06.166Z,99459.16
2022-10-01T16:17:38.970Z,99469.16
2022-10-01T16:20:14.352Z,99470.84
2022-10-01T16:22:43.322Z,99477.88
2022-10-01T16:25:24.890Z,99478.31
2022-10-01T16:27:57.575Z,99488.53
2022-10-01T16:30:28.242Z,99490.38
2022-10-01T16:32:58.362Z,99490.75
2022-10-01T16:35:32.549Z,99502.38
2022-10-01T16:37:59.555Z,99497.16
2022-10-01T16:40:30.826Z,99509.66
2022-10-01T16:43:00.612Z,99514.22
2022-10-01T16:45:36.452Z,99518.75
2022-10-01T16:48:19.535Z,99521.84
2022-10-01T16:50:47.156Z,99520.59
2022-10-01T16:53:18.293Z,99523.50
2022-10-01T16:55:47.365Z,99524.91
2022-10-01T16:58:16.370Z,99535.50
2022-10-01T17:00:43.652Z,99538.63
2022-10-01T17:03:20.221Z,99541.31
2022-10-01T17:05:48.017Z,99562.63
2022-10-01T17:08:15.746Z,99554.69
2022-10-01T17:10:53.646Z,99560.03
2022-10-01T17:13:21.451Z,99563.69
2022-10-01T17:15:50.264Z,99574.69
2022-10-01T17:18:19.871Z,99575.63
2022-10-01T17:20:50.795Z,99580.97
2022-10-01T17:23:24.397Z,99586.50
2022-10-01T17:25:51.426Z,99589.50
2022-10-01T17:28:22.410Z,99594.63
2022-10-01T17:30:50.659Z,99598.47
2022-10-01T17:33:20.109Z,99605.03
2022-10-01T17:35:51.943Z,99619.31
2022-10-01T17:38:19.510Z,99618.00
2022-10-01T17:40:47.585Z,99614.66
2022-10-01T17:43:18.248Z,99623.13
2022-10-01T17:45:52.553Z,99626.22
2022-10-01T17:48:21.853Z,99634.88
2022-10-01T17:50:59.951Z,99637.78
2022-10-01T17:53:32.884Z,99644.47
2022-10-01T17:56:09.432Z,99647.16
2022-10-01T17:58:36.421Z,99656.50
2022-10-01T18:01:10.162Z,99659.34
2022-10-01T18:03:36.833Z,99660.06
2022-10-01T18:06:04.744Z,99675.16
2022-10-01T18:08:51.158Z,99672.84
2022-10-01T18:11:20.269Z,99679.75
2022-10-01T18:13:47.389Z,99687.28
2022-10-01T18:16:19.030Z,99684.97
2022-10-01T18:21:33.312Z,99698.19
2022-10-01T18:24:04.183Z,99697.75
2022-10-01T18:26:31.792Z,99712.81
2022-10-01T18:28:58.683Z,99710.88
2022-10-01T18:31:41.042Z,99713.53
2022-10-01T18:40:38.236Z,99736.06
2022-10-01T18:50:13.457Z,99747.53
2022-10-01T19:03:52.462Z,99763.47
2022-10-01T19:06:49.521Z,99767.88
2022-10-01T19:09:59.976Z,99762.81
2022-10-01T19:12:39.172Z,99772.09
2022-10-01T19:15:47.443Z,99772.59
2022-10-01T19:19:07.209Z,99781.56
2022-10-01T19:22:07.602Z,99778.25
2022-10-01T19:24:37.249Z,99785.66
2022-10-01T19:27:29.603Z,99799.66
2022-10-01T19:30:15.741Z,99799.16
2022-10-01T19:33:25.302Z,99801.34
2022-10-01T19:38:43.101Z,99808.66
2022-10-01T19:56:30.223Z,99818.63
2022-10-01T20:02:36.273Z,99822.34
2022-10-01T20:05:18.202Z,99826.56
2022-10-01T20:08:13.886Z,99818.66
2022-10-01T20:10:56.992Z,99827.41
2022-10-01T20:14:38.312Z,99830.97
2022-10-01T20:17:36.111Z,99827.59
2022-10-01T20:20:37.920Z,99841.25
2022-10-01T20:23:56.653Z,99840.88
2022-10-01T20:26:50.892Z,99849.16
2022-10-01T20:29:47.650Z,99858.44
2022-10-01T20:32:59.837Z,99859.47
2022-10-01T20:36:14.530Z,99862.31
2022-10-01T20:39:11.742Z,99866.53
2022-10-01T20:44:39.293Z,99880.34
2022-10-01T20:56:41.726Z,99891.63
2022-10-01T21:05:36.733Z,99904.41
2022-10-01T21:18:21.109Z,99914.34
2022-10-01T21:21:17.331Z,99914.03
2022-10-01T21:24:03.219Z,99923.44
2022-10-01T21:27:18.608Z,99916.19
2022-10-01T21:30:11.766Z,99932.53
2022-10-01T21:33:10.917Z,99940.59
2022-10-01T21:36:10.833Z,99948.00
2022-10-01T21:39:18.535Z,99948.34
2022-10-01T21:41:57.253Z,99945.13
2022-10-01T21:44:59.894Z,99944.44
2022-10-01T21:47:54.756Z,99957.13
2022-10-01T21:50:58.027Z,99945.50
2022-10-01T21:54:17.280Z,99953.59
2022-10-01T21:57:36.415Z,99967.41
2022-10-01T22:00:23.899Z,99965.56
2022-10-01T22:03:43.795Z,99968.94
2022-10-01T22:06:47.440Z,99974.66
2022-10-01T22:09:56.052Z,99978.53
2022-10-01T22:12:34.525Z,99985.63
2022-10-01T22:15:12.640Z,99980.38
2022-10-01T22:17:39.565Z,99981.41
2022-10-01T22:20:12.880Z,99987.47
2022-10-01T22:22:39.607Z,99983.94
2022-10-01T22:25:08.833Z,99988.78
2022-10-01T22:27:57.181Z,99993.84
2022-10-01T22:30:32.888Z,100000.75
2022-10-01T22:33:20.142Z,99987.47
2022-10-01T22:36:02.145Z,100001.44
2022-10-01T22:38:44.850Z,99999.91
2022-10-01T22:41:35.966Z,100004.44
2022-10-01T22:44:15.741Z,100004.94
2022-10-01T22:47:03.755Z,100015.06
2022-10-01T22:50:30.741Z,100012.00
2022-10-01T22:53:52.420Z,100019.06
2022-10-01T22:56:48.141Z,100004.94
2022-10-01T23:00:10.133Z,100015.91
2022-10-01T23:03:06.851Z,100015.41
2022-10-01T23:06:01.715Z,100019.81
2022-10-01T23:09:25.688Z,100024.53
2022-10-01T23:12:13.886Z,100021.00
2022-10-01T23:15:36.927Z,100028.88
2022-10-01T23:18:42.414Z,100023.16
2022-10-01T23:21:39.570Z,100023.50
2022-10-01T23:24:48.463Z,100023.03
2022-10-01T23:27:39.789Z,100040.03
2022-10-01T23:30:17.735Z,100032.44
2022-10-01T23:33:03.009Z,100031.78
2022-10-01T23:36:02.741Z,100034.81
2022-10-01T23:38:32.387Z,100040.91
2022-10-01T23:41:16.681Z,100034.31
2022-10-01T23:43:51.168Z,100038.72
2022-10-01T23:46:32.139Z,100039.84
2022-10-01T23:49:37.080Z,100046.44
2022-10-01T23:52:19.044Z,100056.19
2022-10-01T23:55:19.159Z,100047.13
2022-10-01T23:57:53.574Z,100053.84
